createdAt,value
2018-05-27T00:00:03.530Z,18.71
2018-05-27T00:02:32.611Z,18.68
2018-05-27T00:05:01.500Z,18.73
2018-05-27T00:07:30.508Z,18.74
2018-05-27T00:09:59.580Z,18.70
2018-05-27T00:12:28.868Z,18.67
2018-05-27T00:14:57.933Z,18.63
2018-05-27T00:17:26.882Z,18.61
2018-05-27T00:19:56.081Z,18.58
2018-05-27T00:22:25.141Z,18.58
2018-05-27T00:24:54.252Z,18.52
2018-05-27T00:27:23.807Z,18.54
2018-05-27T00:29:54.109Z,18.50
2018-05-27T00:32:23.196Z,18.53
2018-05-27T00:34:52.334Z,18.49
2018-05-27T00:37:21.384Z,18.49
2018-05-27T00:39:50.393Z,18.46
2018-05-27T00:42:19.335Z,18.54
2018-05-27T00:44:48.282Z,18.46
2018-05-27T00:49:52.353Z,18.42
2018-05-27T00:52:22.165Z,18.42
2018-05-27T00:54:51.013Z,18.42
2018-05-27T00:57:21.683Z,18.40
2018-05-27T00:59:51.663Z,18.45
2018-05-27T01:02:20.559Z,18.40
2018-05-27T01:04:49.550Z,18.37
2018-05-27T01:07:18.678Z,18.38
2018-05-27T01:09:47.767Z,18.40
2018-05-27T01:12:16.838Z,18.38
2018-05-27T01:14:45.933Z,18.35
2018-05-27T01:17:15.029Z,18.35
2018-05-27T01:19:44.025Z,18.38
2018-05-27T01:22:13.063Z,18.39
2018-05-27T01:24:42.528Z,18.37
2018-05-27T01:27:12.452Z,18.42
2018-05-27T01:29:42.361Z,18.40
2018-05-27T01:32:11.460Z,18.43
2018-05-27T01:34:40.607Z,18.39
2018-05-27T01:37:09.548Z,18.26
2018-05-27T01:39:39.009Z,18.45
2018-05-27T01:42:09.042Z,18.46
2018-05-27T01:44:37.967Z,18.50
2018-05-27T01:47:06.958Z,18.48
2018-05-27T01:49:36.155Z,18.58
2018-05-27T01:52:05.167Z,18.63
2018-05-27T01:54:35.051Z,18.60
2018-05-27T01:57:07.012Z,18.55
2018-05-27T01:59:36.060Z,18.50
2018-05-27T02:02:04.911Z,18.49
2018-05-27T02:04:35.311Z,18.52
2018-05-27T02:07:04.210Z,18.49
2018-05-27T02:09:33.422Z,18.56
2018-05-27T02:12:02.532Z,18.55
2018-05-27T02:14:32.498Z,18.53
2018-05-27T02:17:01.956Z,18.54
2018-05-27T02:22:05.055Z,18.58
2018-05-27T02:24:33.995Z,18.63
2018-05-27T02:27:04.986Z,18.66
2018-05-27T02:29:35.329Z,18.70
2018-05-27T02:32:05.075Z,18.74
2018-05-27T02:34:35.765Z,18.70
2018-05-27T02:37:04.748Z,18.71
2018-05-27T02:39:33.655Z,18.71
2018-05-27T02:42:03.543Z,18.72
2018-05-27T02:44:32.617Z,18.73
2018-05-27T02:47:01.555Z,18.73
2018-05-27T02:49:30.549Z,18.70
2018-05-27T02:51:59.489Z,18.66
2018-05-27T02:54:28.434Z,18.71
2018-05-27T02:56:59.073Z,18.72
2018-05-27T02:59:28.267Z,18.74
2018-05-27T03:01:57.368Z,18.77
2018-05-27T03:04:27.388Z,18.72
2018-05-27T03:06:56.479Z,18.68
2018-05-27T03:09:25.884Z,18.73
2018-05-27T03:14:29.895Z,18.65
2018-05-27T03:16:59.504Z,18.78
2018-05-27T03:22:04.168Z,18.73
2018-05-27T03:24:33.176Z,18.81
2018-05-27T03:27:02.142Z,18.87
2018-05-27T03:29:31.253Z,18.94
2018-05-27T03:32:00.762Z,18.99
2018-05-27T03:34:31.595Z,19.06
2018-05-27T03:37:01.509Z,19.04
2018-05-27T03:45:31.291Z,19.50
2018-05-27T03:48:00.271Z,20.04
2018-05-27T03:50:30.369Z,20.18
2018-05-27T03:53:02.043Z,19.89
2018-05-27T03:55:31.066Z,19.65
2018-05-27T03:57:59.890Z,19.43
2018-05-27T04:00:30.048Z,19.27
2018-05-27T04:02:58.855Z,19.29
2018-05-27T04:05:42.166Z,19.24
2018-05-27T04:08:22.830Z,19.16
2018-05-27T04:10:52.592Z,19.21
2018-05-27T04:13:21.541Z,19.16
2018-05-27T04:15:50.534Z,19.15
2018-05-27T04:18:19.487Z,19.19
2018-05-27T04:20:48.497Z,19.32
2018-05-27T04:23:18.303Z,19.26
2018-05-27T04:25:47.537Z,19.27
2018-05-27T04:28:17.313Z,19.32
2018-05-27T04:30:46.554Z,19.35
2018-05-27T04:33:15.893Z,19.67
2018-05-27T04:35:44.840Z,19.89
2018-05-27T04:38:13.833Z,20.83
2018-05-27T04:40:43.043Z,21.61
2018-05-27T04:43:11.980Z,22.22
2018-05-27T04:45:40.921Z,22.52
2018-05-27T04:48:12.685Z,22.50
2018-05-27T04:50:41.602Z,23.26
2018-05-27T04:53:11.287Z,23.38
2018-05-27T04:55:40.615Z,23.34
2018-05-27T04:58:09.628Z,23.82
2018-05-27T05:00:40.809Z,24.20
2018-05-27T05:03:09.819Z,24.36
2018-05-27T05:05:41.734Z,24.75
2018-05-27T05:08:10.801Z,24.32
2018-05-27T05:10:42.941Z,24.56
2018-05-27T05:13:14.808Z,24.46
2018-05-27T05:15:44.546Z,25.00
2018-05-27T05:18:21.918Z,25.06
2018-05-27T05:20:50.832Z,24.93
2018-05-27T05:23:19.815Z,26.05
2018-05-27T05:25:48.897Z,25.26
2018-05-27T05:28:18.807Z,25.21
2018-05-27T05:30:47.909Z,25.74
2018-05-27T05:33:19.448Z,25.44
2018-05-27T05:35:49.382Z,25.89
2018-05-27T05:38:18.504Z,25.27
2018-05-27T05:40:47.568Z,24.96
2018-05-27T05:43:16.669Z,24.35
2018-05-27T05:45:45.705Z,24.61
2018-05-27T05:48:15.579Z,24.69
2018-05-27T05:50:44.466Z,24.16
2018-05-27T05:53:13.665Z,25.04
2018-05-27T05:58:16.569Z,24.74
2018-05-27T06:00:45.836Z,24.34
2018-05-27T06:03:15.665Z,24.09
2018-05-27T06:05:44.575Z,23.37
2018-05-27T06:08:13.515Z,23.00
2018-05-27T06:10:43.415Z,24.16
2018-05-27T06:13:12.287Z,23.84
2018-05-27T06:15:41.372Z,23.60
2018-05-27T06:18:10.471Z,24.57
2018-05-27T06:20:39.489Z,24.91
2018-05-27T06:23:08.563Z,24.88
2018-05-27T06:25:37.782Z,25.96
2018-05-27T06:28:06.754Z,26.84
2018-05-27T06:30:35.765Z,25.81
2018-05-27T06:33:04.843Z,24.21
2018-05-27T06:35:33.924Z,24.41
2018-05-27T06:38:03.047Z,23.66
2018-05-27T06:40:34.804Z,23.05
2018-05-27T06:43:03.837Z,23.21
2018-05-27T06:45:32.891Z,23.27
2018-05-27T06:48:03.519Z,23.61
2018-05-27T06:50:33.637Z,23.97
2018-05-27T06:53:02.755Z,23.66
2018-05-27T06:55:31.840Z,23.53
2018-05-27T06:58:00.833Z,23.65
2018-05-27T07:00:30.306Z,24.98
2018-05-27T07:05:33.647Z,24.07
2018-05-27T07:08:02.623Z,24.87
2018-05-27T07:10:32.459Z,24.67
2018-05-27T07:13:01.348Z,25.05
2018-05-27T07:15:30.373Z,25.21
2018-05-27T07:18:02.096Z,25.65
2018-05-27T07:20:31.971Z,25.44
2018-05-27T07:23:01.017Z,25.19
2018-05-27T07:25:30.824Z,25.68
2018-05-27T07:27:59.925Z,25.63
2018-05-27T07:30:28.920Z,25.25
2018-05-27T07:32:59.601Z,26.26
2018-05-27T07:35:29.666Z,26.91
2018-05-27T07:37:58.761Z,26.23
2018-05-27T07:40:27.855Z,25.37
2018-05-27T07:42:56.884Z,26.17
2018-05-27T07:45:25.782Z,24.99
2018-05-27T07:47:55.666Z,24.18
2018-05-27T07:50:25.450Z,24.66
2018-05-27T07:52:54.571Z,24.85
2018-05-27T07:55:24.609Z,24.77
2018-05-27T07:57:54.615Z,24.98
2018-05-27T08:00:23.754Z,25.54
2018-05-27T08:02:53.736Z,25.37
2018-05-27T08:05:22.715Z,24.87
2018-05-27T08:07:51.726Z,25.05
2018-05-27T08:10:21.430Z,25.02
2018-05-27T08:12:50.374Z,24.44
2018-05-27T08:15:19.204Z,24.20
2018-05-27T08:17:48.273Z,23.53
2018-05-27T08:20:17.641Z,23.77
2018-05-27T08:22:46.765Z,23.44
2018-05-27T08:25:19.449Z,23.49
2018-05-27T08:27:49.073Z,23.74
2018-05-27T08:30:18.064Z,23.91
2018-05-27T08:32:47.147Z,24.01
2018-05-27T08:35:16.259Z,23.93
2018-05-27T08:37:45.233Z,24.02
2018-05-27T08:40:14.169Z,23.65
2018-05-27T08:42:43.167Z,23.72
2018-05-27T08:45:12.116Z,23.77
2018-05-27T08:47:43.372Z,23.77
2018-05-27T08:50:12.294Z,23.79
2018-05-27T08:52:41.764Z,23.80
2018-05-27T08:55:10.757Z,23.33
2018-05-27T08:57:40.878Z,23.49
2018-05-27T09:00:09.869Z,23.68
2018-05-27T09:02:39.685Z,23.91
2018-05-27T09:05:08.686Z,24.08
2018-05-27T09:07:37.683Z,24.35
2018-05-27T09:10:07.382Z,24.43
2018-05-27T09:12:36.201Z,24.69
2018-05-27T09:15:05.124Z,24.24
2018-05-27T09:20:09.097Z,23.43
2018-05-27T09:22:39.154Z,23.24
2018-05-27T09:25:10.999Z,23.15
2018-05-27T09:27:39.924Z,23.41
2018-05-27T09:30:08.809Z,23.47
2018-05-27T09:32:37.722Z,23.76
2018-05-27T09:35:06.749Z,23.76
2018-05-27T09:37:36.390Z,23.59
2018-05-27T09:40:05.361Z,23.45
2018-05-27T09:42:34.282Z,23.41
2018-05-27T09:45:03.260Z,23.81
2018-05-27T09:47:33.153Z,23.62
2018-05-27T09:50:02.072Z,23.78
2018-05-27T09:52:31.123Z,23.79
2018-05-27T09:55:02.885Z,23.78
2018-05-27T09:57:31.924Z,23.79
2018-05-27T10:00:00.880Z,23.77
2018-05-27T10:02:30.089Z,23.85
2018-05-27T10:04:58.974Z,23.82
2018-05-27T10:07:27.970Z,23.77
2018-05-27T10:09:59.834Z,23.67
2018-05-27T10:12:28.727Z,23.52
2018-05-27T10:14:57.814Z,23.66
2018-05-27T10:17:27.538Z,23.52
2018-05-27T10:19:57.252Z,23.78
2018-05-27T10:22:26.347Z,23.66
2018-05-27T10:24:55.554Z,23.43
2018-05-27T10:27:24.593Z,23.78
2018-05-27T10:29:53.531Z,23.60
2018-05-27T10:32:22.419Z,23.90
2018-05-27T10:34:51.313Z,24.09
2018-05-27T10:37:21.428Z,23.84
2018-05-27T10:39:51.498Z,23.58
2018-05-27T10:42:20.446Z,23.23
2018-05-27T10:44:49.807Z,23.50
2018-05-27T10:47:20.447Z,23.72
2018-05-27T10:49:50.202Z,23.70
2018-05-27T10:52:18.984Z,23.84
2018-05-27T10:57:22.092Z,23.97
2018-05-27T10:59:50.919Z,24.13
2018-05-27T11:02:19.871Z,24.04
2018-05-27T11:04:48.905Z,24.10
2018-05-27T11:07:17.893Z,24.21
2018-05-27T11:09:49.115Z,24.23
2018-05-27T11:12:18.444Z,23.90
2018-05-27T11:14:47.444Z,23.77
2018-05-27T11:17:16.399Z,23.81
2018-05-27T11:19:45.342Z,23.93
2018-05-27T11:22:14.116Z,24.01
2018-05-27T11:24:43.076Z,23.80
2018-05-27T11:27:11.969Z,23.96
2018-05-27T11:29:41.067Z,23.83
2018-05-27T11:34:43.859Z,23.50
2018-05-27T11:37:12.758Z,23.81
2018-05-27T11:39:41.793Z,23.72
2018-05-27T11:42:10.641Z,23.44
2018-05-27T11:44:39.640Z,23.34
2018-05-27T11:47:08.528Z,23.52
2018-05-27T11:49:37.522Z,23.64
2018-05-27T11:52:07.802Z,23.65
2018-05-27T11:54:37.289Z,23.30
2018-05-27T11:57:07.270Z,23.44
2018-05-27T11:59:36.297Z,23.65
2018-05-27T12:02:05.210Z,23.89
2018-05-27T12:04:34.661Z,23.82
2018-05-27T12:07:04.371Z,23.88
2018-05-27T12:09:33.373Z,23.83
2018-05-27T12:12:06.357Z,23.72
2018-05-27T12:14:35.354Z,23.54
2018-05-27T12:17:04.414Z,23.50
2018-05-27T12:19:34.367Z,23.56
2018-05-27T12:22:03.969Z,23.45
2018-05-27T12:24:32.861Z,23.57
2018-05-27T12:27:02.015Z,23.69
2018-05-27T12:29:30.952Z,23.56
2018-05-27T12:31:59.843Z,23.44
2018-05-27T12:34:28.781Z,23.55
2018-05-27T12:36:57.904Z,23.60
2018-05-27T12:39:26.873Z,23.68
2018-05-27T12:41:57.565Z,23.68
2018-05-27T12:44:26.663Z,23.40
2018-05-27T12:46:55.550Z,23.51
2018-05-27T12:49:24.443Z,23.63
2018-05-27T12:51:53.355Z,23.58
2018-05-27T12:54:23.253Z,23.47
2018-05-27T12:56:55.650Z,23.31
2018-05-27T12:59:24.729Z,23.31
2018-05-27T13:01:53.645Z,23.37
2018-05-27T13:04:22.746Z,23.23
2018-05-27T13:06:51.741Z,23.37
2018-05-27T13:09:20.696Z,23.44
2018-05-27T13:11:52.834Z,23.60
2018-05-27T13:14:21.757Z,23.69
2018-05-27T13:16:51.049Z,23.48
2018-05-27T13:19:20.844Z,23.46
2018-05-27T13:21:49.822Z,23.56
2018-05-27T13:24:19.872Z,23.25
2018-05-27T13:26:50.337Z,23.27
2018-05-27T13:29:20.134Z,23.20
2018-05-27T13:31:49.139Z,23.04
2018-05-27T13:34:18.318Z,23.18
2018-05-27T13:36:47.789Z,23.04
2018-05-27T13:39:16.860Z,22.77
2018-05-27T13:41:46.018Z,22.68
2018-05-27T13:44:14.912Z,22.82
2018-05-27T13:46:44.117Z,22.85
2018-05-27T13:49:13.091Z,22.49
2018-05-27T13:51:42.032Z,22.54
2018-05-27T13:54:11.044Z,22.77
2018-05-27T13:56:40.851Z,22.59
2018-05-27T13:59:09.800Z,22.49
2018-05-27T14:01:38.829Z,22.48
2018-05-27T14:04:08.142Z,22.45
2018-05-27T14:06:37.132Z,22.17
2018-05-27T14:09:07.230Z,22.05
2018-05-27T14:11:39.072Z,22.25
2018-05-27T14:14:07.866Z,22.25
2018-05-27T14:16:37.062Z,22.42
2018-05-27T14:19:07.213Z,22.36
2018-05-27T14:21:36.382Z,22.37
2018-05-27T14:24:05.475Z,22.29
2018-05-27T14:26:35.292Z,22.23
2018-05-27T14:29:04.488Z,22.35
2018-05-27T14:31:33.481Z,22.16
2018-05-27T14:34:02.488Z,22.16
2018-05-27T14:36:31.367Z,22.17
2018-05-27T14:39:01.080Z,22.28
2018-05-27T14:41:30.155Z,22.25
2018-05-27T14:43:59.248Z,22.29
2018-05-27T14:46:28.260Z,22.31
2018-05-27T14:48:57.902Z,22.20
2018-05-27T14:51:27.268Z,22.26
2018-05-27T14:53:56.773Z,22.39
2018-05-27T14:56:27.624Z,22.14
2018-05-27T14:58:57.441Z,22.24
2018-05-27T15:01:27.371Z,22.35
2018-05-27T15:03:57.649Z,22.21
2018-05-27T15:06:26.574Z,22.14
2018-05-27T15:08:55.461Z,22.16
2018-05-27T15:11:24.550Z,22.11
2018-05-27T15:13:54.083Z,22.18
2018-05-27T15:16:22.969Z,22.22
2018-05-27T15:18:54.755Z,22.07
2018-05-27T15:21:23.608Z,21.82
2018-05-27T15:23:52.709Z,21.81
2018-05-27T15:26:21.822Z,21.81
2018-05-27T15:28:51.619Z,21.97
2018-05-27T15:31:20.615Z,21.89
2018-05-27T15:33:49.595Z,21.77
2018-05-27T15:36:18.786Z,21.60
2018-05-27T15:38:47.682Z,21.78
2018-05-27T15:41:16.585Z,21.70
2018-05-27T15:43:45.659Z,21.53
2018-05-27T15:46:14.685Z,21.55
2018-05-27T15:48:44.591Z,21.59
2018-05-27T15:51:13.629Z,21.54
2018-05-27T15:53:42.581Z,21.41
2018-05-27T15:56:11.408Z,21.54
2018-05-27T15:58:40.399Z,21.51
2018-05-27T16:01:09.362Z,21.54
2018-05-27T16:03:40.865Z,21.36
2018-05-27T16:06:09.841Z,21.49
2018-05-27T16:08:38.701Z,21.12
2018-05-27T16:11:08.091Z,21.21
2018-05-27T16:13:37.831Z,21.13
2018-05-27T16:16:06.953Z,21.02
2018-05-27T16:18:37.030Z,20.95
2018-05-27T16:21:05.920Z,21.01
2018-05-27T16:23:34.998Z,20.90
2018-05-27T16:26:08.113Z,20.80
2018-05-27T16:28:37.302Z,20.81
2018-05-27T16:31:06.308Z,20.72
2018-05-27T16:33:35.999Z,20.79
2018-05-27T16:36:04.909Z,20.86
2018-05-27T16:38:33.799Z,20.79
2018-05-27T16:41:03.720Z,20.86
2018-05-27T16:43:32.894Z,20.87
2018-05-27T16:46:02.111Z,20.82
2018-05-27T16:48:31.514Z,20.72
2018-05-27T16:51:00.461Z,20.66
2018-05-27T16:53:29.524Z,20.71
2018-05-27T16:55:58.601Z,20.68
2018-05-27T16:58:27.640Z,20.65
2018-05-27T17:00:57.076Z,20.61
2018-05-27T17:03:26.129Z,20.59
2018-05-27T17:05:55.263Z,20.55
2018-05-27T17:08:24.291Z,20.34
2018-05-27T17:10:54.143Z,20.40
2018-05-27T17:13:23.126Z,20.33
2018-05-27T17:15:52.330Z,20.26
2018-05-27T17:18:21.434Z,20.18
2018-05-27T17:20:50.748Z,20.07
2018-05-27T17:23:19.613Z,19.93
2018-05-27T17:25:49.436Z,19.81
2018-05-27T17:28:18.397Z,19.84
2018-05-27T17:30:47.451Z,19.82
2018-05-27T17:33:18.053Z,19.81
2018-05-27T17:35:47.538Z,19.65
2018-05-27T17:38:16.621Z,19.45
2018-05-27T17:40:47.253Z,19.46
2018-05-27T17:43:16.337Z,19.45
2018-05-27T17:45:45.239Z,19.28
2018-05-27T17:48:14.444Z,19.23
2018-05-27T17:50:43.439Z,19.23
2018-05-27T17:53:12.531Z,19.16
2018-05-27T17:55:44.135Z,19.08
2018-05-27T17:58:13.077Z,19.13
2018-05-27T18:00:42.376Z,19.08
2018-05-27T18:03:13.934Z,19.07
2018-05-27T18:05:43.270Z,19.11
2018-05-27T18:08:12.371Z,19.01
2018-05-27T18:10:42.102Z,19.02
2018-05-27T18:13:11.151Z,19.07
2018-05-27T18:15:40.461Z,19.06
2018-05-27T18:20:44.105Z,18.89
2018-05-27T18:23:14.014Z,18.79
2018-05-27T18:26:00.381Z,18.85
2018-05-27T18:28:33.673Z,18.85
2018-05-27T18:31:02.778Z,18.80
2018-05-27T18:33:34.931Z,18.82
2018-05-27T18:36:05.946Z,18.79
2018-05-27T18:38:34.946Z,18.79
2018-05-27T18:41:09.874Z,18.79
2018-05-27T18:43:39.148Z,18.77
2018-05-27T18:46:08.025Z,18.73
2018-05-27T18:48:37.198Z,18.77
2018-05-27T18:51:06.368Z,18.76
2018-05-27T18:53:35.133Z,18.72
2018-05-27T18:56:03.999Z,18.68
2018-05-27T18:58:32.973Z,18.63
2018-05-27T19:01:02.159Z,18.62
2018-05-27T19:03:31.251Z,18.64
2018-05-27T19:06:00.279Z,18.68
2018-05-27T19:08:29.306Z,18.64
2018-05-27T19:10:58.210Z,18.67
2018-05-27T19:13:27.023Z,18.70
2018-05-27T19:15:55.845Z,18.64
2018-05-27T19:18:24.687Z,18.65
2018-05-27T19:20:53.491Z,18.66
2018-05-27T19:23:22.273Z,18.67
2018-05-27T19:28:25.419Z,18.68
2018-05-27T19:30:54.175Z,18.68
2018-05-27T19:33:22.986Z,18.69
2018-05-27T19:35:51.814Z,18.74
2018-05-27T19:38:20.523Z,18.73
2018-05-27T19:40:49.293Z,18.73
2018-05-27T19:43:18.125Z,18.71
2018-05-27T19:45:46.868Z,18.78
2018-05-27T19:48:15.633Z,18.78
2018-05-27T19:50:46.106Z,18.80
2018-05-27T19:53:14.834Z,18.82
2018-05-27T19:55:43.687Z,18.79
2018-05-27T19:58:15.442Z,18.76
2018-05-27T20:00:44.265Z,18.80
2018-05-27T20:03:12.974Z,18.78
2018-05-27T20:05:42.684Z,18.82
2018-05-27T20:08:11.376Z,18.77
2018-05-27T20:10:40.104Z,18.75
2018-05-27T20:13:09.812Z,18.72
2018-05-27T20:15:38.579Z,18.77
2018-05-27T20:18:07.397Z,18.70
2018-05-27T20:20:38.075Z,18.74
2018-05-27T20:23:07.224Z,18.79
2018-05-27T20:25:36.584Z,18.76
2018-05-27T20:28:05.566Z,18.80
2018-05-27T20:30:34.678Z,18.77
2018-05-27T20:33:04.274Z,18.84
2018-05-27T20:35:35.938Z,18.80
2018-05-27T20:38:05.633Z,18.76
2018-05-27T20:40:34.405Z,18.73
2018-05-27T20:43:05.098Z,18.70
2018-05-27T20:45:34.412Z,18.68
2018-05-27T20:48:04.392Z,18.70
2018-05-27T20:53:07.026Z,18.71
2018-05-27T20:55:36.071Z,18.71
2018-05-27T20:58:05.209Z,18.66
2018-05-27T21:00:34.121Z,18.64
2018-05-27T21:03:02.950Z,18.66
2018-05-27T21:05:32.108Z,18.73
2018-05-27T21:08:01.045Z,18.68
2018-05-27T21:10:29.936Z,18.65
2018-05-27T21:15:32.736Z,18.47
2018-05-27T21:18:01.942Z,18.45
2018-05-27T21:20:30.687Z,18.43
2018-05-27T21:22:59.429Z,18.34
2018-05-27T21:25:28.166Z,18.28
2018-05-27T21:27:57.003Z,18.25
2018-05-27T21:30:25.783Z,18.28
2018-05-27T21:32:54.672Z,18.27
2018-05-27T21:35:23.450Z,18.25
2018-05-27T21:37:52.203Z,18.19
2018-05-27T21:40:21.144Z,18.16
2018-05-27T21:42:49.900Z,18.08
2018-05-27T21:45:18.669Z,18.10
2018-05-27T21:47:47.411Z,18.06
2018-05-27T21:50:16.283Z,18.02
2018-05-27T21:52:45.045Z,17.99
2018-05-27T21:55:13.843Z,17.94
2018-05-27T21:57:43.446Z,17.90
2018-05-27T22:00:12.156Z,17.91
2018-05-27T22:02:40.959Z,17.86
2018-05-27T22:05:09.727Z,17.85
2018-05-27T22:07:38.494Z,17.90
2018-05-27T22:10:07.248Z,17.85
2018-05-27T22:12:36.046Z,17.88
2018-05-27T22:15:04.873Z,17.90
2018-05-27T22:17:33.559Z,17.82
2018-05-27T22:20:02.399Z,17.74
2018-05-27T22:22:32.200Z,17.69
2018-05-27T22:25:01.045Z,17.70
2018-05-27T22:27:30.605Z,17.76
2018-05-27T22:29:59.363Z,17.72
2018-05-27T22:32:28.242Z,17.75
2018-05-27T22:34:57.025Z,17.80
2018-05-27T22:37:25.783Z,17.84
2018-05-27T22:39:54.545Z,17.83
2018-05-27T22:42:27.118Z,17.81
2018-05-27T22:44:55.861Z,17.84
2018-05-27T22:47:24.563Z,17.89
2018-05-27T22:49:54.208Z,17.88
2018-05-27T22:52:22.903Z,17.95
2018-05-27T22:54:51.687Z,17.94
2018-05-27T22:57:22.705Z,17.95
2018-05-27T22:59:51.582Z,17.98
2018-05-27T23:02:20.345Z,17.97
2018-05-27T23:04:49.149Z,18.02
2018-05-27T23:07:17.982Z,18.04
2018-05-27T23:09:46.802Z,18.02
2018-05-27T23:12:21.341Z,18.03
2018-05-27T23:14:50.121Z,18.04
2018-05-27T23:17:18.932Z,18.04
2018-05-27T23:19:47.941Z,18.09
2018-05-27T23:22:16.714Z,18.05
2018-05-27T23:24:45.585Z,18.05
2018-05-27T23:27:14.436Z,18.04
2018-05-27T23:29:43.341Z,18.00
2018-05-27T23:32:12.104Z,18.02
2018-05-27T23:34:42.633Z,18.01
2018-05-27T23:37:11.843Z,17.97
2018-05-27T23:39:40.778Z,17.98
2018-05-27T23:42:12.667Z,17.98
2018-05-27T23:44:41.522Z,17.93
2018-05-27T23:47:10.329Z,17.97
2018-05-27T23:49:39.999Z,17.97
2018-05-27T23:52:09.098Z,17.98
2018-05-27T23:54:38.021Z,17.91
2018-05-27T23:57:06.978Z,17.93
2018-05-27T23:59:35.874Z,17.88
